This is the latest recevied weather packets stored in our database for station/object KQ4KX. If no packets are shown the sender has not sent any weather packets the latest 10 day(s).
| Time | Temp. | Humidity | Pressure | Rain* | Wind** | Luminosity | Snow |
|---|---|---|---|---|---|---|---|
| 1777327285 | 26.67° C | 70% | 1016.4 hPa | 0 mm | - | - | - |
| 1777326653 | 27.22° C | 71% | 1016.3 hPa | 0 mm | - | - | - |
| 1777326354 | 27.22° C | 72% | 1016.2 hPa | 0 mm | - | - | - |
| 1777326023 | 27.22° C | 71% | 1016.3 hPa | 0 mm | - | - | - |
| 1777325724 | 27.22° C | 69% | 1016.2 hPa | 0 mm | - | - | - |
| 1777325424 | 27.22° C | 69% | 1016.2 hPa | 0 mm | - | - | - |
| 1777324794 | 27.78° C | 70% | 1016.2 hPa | 0 mm | - | - | - |
| 1777324493 | 27.78° C | 69% | 1016.1 hPa | 0 mm | - | - | - |
| 1777324163 | 27.78° C | 70% | 1016.1 hPa | 0 mm | - | - | - |
| 1777323533 | 27.78° C | 70% | 1016.1 hPa | 0 mm | - | - | - |
| 1777323234 | 27.78° C | 69% | 1016.1 hPa | 0 mm | - | - | - |
| 1777322933 | 27.78° C | 72% | 1015.9 hPa | 0 mm | - | - | - |
| 1777322634 | 27.78° C | 71% | 1015.8 hPa | 0 mm | - | - | - |
| 1777321704 | 27.78° C | 71% | 1015.7 hPa | 0 mm | - | - | - |
| 1777321374 | 27.78° C | 69% | 1015.7 hPa | 0 mm | - | - | - |
| 1777321074 | 28.33° C | 68% | 1015.5 hPa | 0 mm | - | - | - |
| 1777320444 | 29.44° C | 64% | 1015.6 hPa | 0 mm | - | - | - |
| 1777318854 | 28.89° C | 67% | 1015.7 hPa | 0 mm | - | - | - |
| 1777318524 | 28.89° C | 66% | 1015.8 hPa | 0 mm | - | - | - |
| 1777317894 | 29.44° C | 66% | 1015.9 hPa | 0 mm | - | - | - |
| 1777317594 | 29.44° C | 65% | 1015.9 hPa | 0 mm | - | - | - |
| 1777317264 | 29.44° C | 66% | 1016 hPa | 0 mm | - | - | - |
| 1777316964 | 29.44° C | 65% | 1016.1 hPa | 0 mm | - | - | - |
| 1777316333 | 28.89° C | 68% | 1016 hPa | 0 mm | - | - | - |
| 1777316004 | 28.89° C | 67% | 1016.1 hPa | 0 mm | - | - | - |
* Rain latest hour (hover to see other rain measurements)
** Current wind speed in m/s (hover to see current wind gust speed)